Terminal Aerodrome Forecast
Issued by NWS

Home | Current Version | Previous Version | Graphics & Text | Print | Product List | Glossary On
Versions: 1 2 3 4 5 6 7 8 9 10 11 12 13 14 15 16 17
698
FTUS43 KABR 212324
TAFMBG
TAF
KMBG 212324Z 2200/2224 09008KT P6SM OVC060
     FM220700 11015G23KT P6SM OVC100
     FM221400 15022G32KT P6SM OVC050=

USA.gov is the U.S. government's official web portal to all federal, state and local government web resources and services.